sensor_id;sensor_type;location;lat;lon;timestamp;P1;durP1;ratioP1;P2;durP2;ratioP2
15110;SDS011;7656;51.954;7.998;2023-04-01T00:03:45;1.90;;;1.70;;
15110;SDS011;7656;51.954;7.998;2023-04-01T00:08:06;4.70;;;1.80;;
15110;SDS011;7656;51.954;7.998;2023-04-01T00:12:27;2.53;;;1.90;;
15110;SDS011;7656;51.954;7.998;2023-04-01T00:16:48;2.97;;;1.30;;
15110;SDS011;7656;51.954;7.998;2023-04-01T00:21:09;1.10;;;1.10;;
15110;SDS011;7656;51.954;7.998;2023-04-01T00:25:30;1.73;;;1.30;;
15110;SDS011;7656;51.954;7.998;2023-04-01T00:29:51;1.40;;;1.00;;
15110;SDS011;7656;51.954;7.998;2023-04-01T00:34:12;2.87;;;1.03;;
15110;SDS011;7656;51.954;7.998;2023-04-01T00:38:34;0.70;;;0.70;;
15110;SDS011;7656;51.954;7.998;2023-04-01T00:42:55;2.17;;;1.40;;
15110;SDS011;7656;51.954;7.998;2023-04-01T00:47:17;1.60;;;1.40;;
15110;SDS011;7656;51.954;7.998;2023-04-01T00:51:38;1.60;;;1.20;;
15110;SDS011;7656;51.954;7.998;2023-04-01T01:00:30;1.63;;;1.10;;
15110;SDS011;7656;51.954;7.998;2023-04-01T01:04:51;1.10;;;1.00;;
15110;SDS011;7656;51.954;7.998;2023-04-01T01:09:17;1.43;;;1.30;;
15110;SDS011;7656;51.954;7.998;2023-04-01T01:13:58;2.27;;;1.10;;
15110;SDS011;7656;51.954;7.998;2023-04-01T01:37:46;0.90;;;0.90;;
15110;SDS011;7656;51.954;7.998;2023-04-01T01:42:16;3.17;;;0.80;;
15110;SDS011;7656;51.954;7.998;2023-04-01T01:46:39;2.93;;;1.17;;
15110;SDS011;7656;51.954;7.998;2023-04-01T01:51:04;1.77;;;0.97;;
15110;SDS011;7656;51.954;7.998;2023-04-01T01:55:31;1.00;;;0.77;;
15110;SDS011;7656;51.954;7.998;2023-04-01T01:59:58;0.83;;;0.83;;
15110;SDS011;7656;51.954;7.998;2023-04-01T02:04:36;1.17;;;0.73;;
15110;SDS011;7656;51.954;7.998;2023-04-01T02:09:01;0.90;;;0.60;;
15110;SDS011;7656;51.954;7.998;2023-04-01T02:13:29;0.60;;;0.60;;
15110;SDS011;7656;51.954;7.998;2023-04-01T02:17:58;2.07;;;1.07;;
15110;SDS011;7656;51.954;7.998;2023-04-01T02:22:21;0.60;;;0.50;;
15110;SDS011;7656;51.954;7.998;2023-04-01T02:26:49;2.10;;;1.10;;
15110;SDS011;7656;51.954;7.998;2023-04-01T02:31:12;2.03;;;0.80;;
15110;SDS011;7656;51.954;7.998;2023-04-01T02:35:37;1.37;;;0.93;;
15110;SDS011;7656;51.954;7.998;2023-04-01T02:40:00;1.37;;;0.90;;
15110;SDS011;7656;51.954;7.998;2023-04-01T02:44:23;1.63;;;0.70;;
15110;SDS011;7656;51.954;7.998;2023-04-01T02:48:44;0.93;;;0.93;;
15110;SDS011;7656;51.954;7.998;2023-04-01T02:53:05;1.10;;;1.10;;
15110;SDS011;7656;51.954;7.998;2023-04-01T02:57:27;0.93;;;0.80;;
15110;SDS011;7656;51.954;7.998;2023-04-01T03:01:48;0.77;;;0.77;;
15110;SDS011;7656;51.954;7.998;2023-04-01T03:06:10;0.80;;;0.80;;
15110;SDS011;7656;51.954;7.998;2023-04-01T03:10:34;1.33;;;0.53;;
15110;SDS011;7656;51.954;7.998;2023-04-01T03:14:55;1.37;;;0.87;;
15110;SDS011;7656;51.954;7.998;2023-04-01T03:19:17;0.70;;;0.70;;
15110;SDS011;7656;51.954;7.998;2023-04-01T03:23:38;0.90;;;0.70;;
15110;SDS011;7656;51.954;7.998;2023-04-01T03:27:59;1.17;;;1.10;;
15110;SDS011;7656;51.954;7.998;2023-04-01T03:32:20;0.97;;;0.83;;
15110;SDS011;7656;51.954;7.998;2023-04-01T03:36:41;0.90;;;0.60;;
15110;SDS011;7656;51.954;7.998;2023-04-01T03:41:03;1.23;;;0.77;;
15110;SDS011;7656;51.954;7.998;2023-04-01T03:45:26;0.70;;;0.60;;
15110;SDS011;7656;51.954;7.998;2023-04-01T03:49:47;1.67;;;0.60;;
15110;SDS011;7656;51.954;7.998;2023-04-01T03:54:08;0.87;;;0.80;;
15110;SDS011;7656;51.954;7.998;2023-04-01T03:58:31;0.50;;;0.50;;
15110;SDS011;7656;51.954;7.998;2023-04-01T04:02:52;0.67;;;0.67;;
15110;SDS011;7656;51.954;7.998;2023-04-01T04:07:19;1.13;;;0.60;;
15110;SDS011;7656;51.954;7.998;2023-04-01T04:11:54;2.43;;;0.80;;
15110;SDS011;7656;51.954;7.998;2023-04-01T04:16:16;0.80;;;0.80;;
15110;SDS011;7656;51.954;7.998;2023-04-01T04:20:45;0.83;;;0.70;;
15110;SDS011;7656;51.954;7.998;2023-04-01T04:25:09;0.80;;;0.80;;
15110;SDS011;7656;51.954;7.998;2023-04-01T04:29:30;0.90;;;0.90;;
15110;SDS011;7656;51.954;7.998;2023-04-01T04:33:52;0.63;;;0.63;;
15110;SDS011;7656;51.954;7.998;2023-04-01T04:38:13;0.70;;;0.70;;
15110;SDS011;7656;51.954;7.998;2023-04-01T04:42:35;1.17;;;0.70;;
15110;SDS011;7656;51.954;7.998;2023-04-01T04:47:03;1.70;;;0.83;;
15110;SDS011;7656;51.954;7.998;2023-04-01T04:51:25;1.40;;;0.90;;
15110;SDS011;7656;51.954;7.998;2023-04-01T04:55:47;1.90;;;0.90;;
15110;SDS011;7656;51.954;7.998;2023-04-01T05:00:36;1.00;;;1.00;;
15110;SDS011;7656;51.954;7.998;2023-04-01T05:05:01;1.27;;;0.80;;
15110;SDS011;7656;51.954;7.998;2023-04-01T05:09:22;0.90;;;0.90;;
15110;SDS011;7656;51.954;7.998;2023-04-01T05:13:43;0.70;;;0.70;;
15110;SDS011;7656;51.954;7.998;2023-04-01T05:18:05;0.70;;;0.70;;
15110;SDS011;7656;51.954;7.998;2023-04-01T05:22:27;1.53;;;0.97;;
15110;SDS011;7656;51.954;7.998;2023-04-01T05:26:48;0.60;;;0.60;;
15110;SDS011;7656;51.954;7.998;2023-04-01T05:31:09;0.90;;;0.90;;
15110;SDS011;7656;51.954;7.998;2023-04-01T05:35:33;0.97;;;0.97;;
15110;SDS011;7656;51.954;7.998;2023-04-01T05:39:54;0.63;;;0.57;;
15110;SDS011;7656;51.954;7.998;2023-04-01T05:44:16;1.70;;;0.83;;
15110;SDS011;7656;51.954;7.998;2023-04-01T05:48:37;0.50;;;0.50;;
15110;SDS011;7656;51.954;7.998;2023-04-01T05:52:58;0.70;;;0.70;;
15110;SDS011;7656;51.954;7.998;2023-04-01T05:57:19;1.37;;;0.80;;
15110;SDS011;7656;51.954;7.998;2023-04-01T06:01:41;0.70;;;0.70;;
15110;SDS011;7656;51.954;7.998;2023-04-01T06:06:03;0.73;;;0.73;;
15110;SDS011;7656;51.954;7.998;2023-04-01T06:10:48;1.80;;;1.00;;
15110;SDS011;7656;51.954;7.998;2023-04-01T06:29:50;1.20;;;1.20;;
15110;SDS011;7656;51.954;7.998;2023-04-01T06:34:48;1.33;;;1.20;;
15110;SDS011;7656;51.954;7.998;2023-04-01T06:44:16;1.50;;;1.40;;
15110;SDS011;7656;51.954;7.998;2023-04-01T06:54:31;2.00;;;1.87;;
15110;SDS011;7656;51.954;7.998;2023-04-01T06:59:02;1.87;;;1.77;;
15110;SDS011;7656;51.954;7.998;2023-04-01T07:03:41;2.10;;;1.90;;
15110;SDS011;7656;51.954;7.998;2023-04-01T07:08:11;2.03;;;1.60;;
15110;SDS011;7656;51.954;7.998;2023-04-01T07:12:45;2.33;;;1.73;;
15110;SDS011;7656;51.954;7.998;2023-04-01T07:17:25;1.90;;;1.70;;
15110;SDS011;7656;51.954;7.998;2023-04-01T07:21:53;1.37;;;1.30;;
15110;SDS011;7656;51.954;7.998;2023-04-01T07:26:30;2.57;;;1.60;;
15110;SDS011;7656;51.954;7.998;2023-04-01T07:31:07;1.90;;;1.70;;
15110;SDS011;7656;51.954;7.998;2023-04-01T07:35:54;1.70;;;1.40;;
15110;SDS011;7656;51.954;7.998;2023-04-01T07:45:20;1.60;;;1.50;;
15110;SDS011;7656;51.954;7.998;2023-04-01T07:55:03;2.07;;;1.60;;
15110;SDS011;7656;51.954;7.998;2023-04-01T08:09:41;2.17;;;1.63;;
15110;SDS011;7656;51.954;7.998;2023-04-01T08:14:53;3.00;;;1.63;;
15110;SDS011;7656;51.954;7.998;2023-04-01T08:24:39;1.50;;;1.40;;
15110;SDS011;7656;51.954;7.998;2023-04-01T08:29:20;1.70;;;1.60;;
15110;SDS011;7656;51.954;7.998;2023-04-01T08:33:47;1.33;;;1.23;;
15110;SDS011;7656;51.954;7.998;2023-04-01T08:38:16;2.60;;;1.50;;
15110;SDS011;7656;51.954;7.998;2023-04-01T08:43:30;1.87;;;1.77;;
15110;SDS011;7656;51.954;7.998;2023-04-01T08:52:15;1.63;;;1.53;;
15110;SDS011;7656;51.954;7.998;2023-04-01T08:57:01;1.40;;;1.30;;
15110;SDS011;7656;51.954;7.998;2023-04-01T09:17:01;1.83;;;1.73;;
15110;SDS011;7656;51.954;7.998;2023-04-01T09:31:15;1.67;;;1.57;;
15110;SDS011;7656;51.954;7.998;2023-04-01T09:36:45;1.50;;;1.40;;
15110;SDS011;7656;51.954;7.998;2023-04-01T09:41:18;1.40;;;1.30;;
15110;SDS011;7656;51.954;7.998;2023-04-01T09:50:52;2.60;;;1.70;;
15110;SDS011;7656;51.954;7.998;2023-04-01T10:21:14;2.83;;;2.63;;
15110;SDS011;7656;51.954;7.998;2023-04-01T10:36:40;2.63;;;2.07;;
15110;SDS011;7656;51.954;7.998;2023-04-01T10:41:16;1.80;;;1.70;;
15110;SDS011;7656;51.954;7.998;2023-04-01T10:51:56;2.17;;;1.70;;
15110;SDS011;7656;51.954;7.998;2023-04-01T11:02:24;2.07;;;1.90;;
15110;SDS011;7656;51.954;7.998;2023-04-01T11:32:07;1.67;;;1.57;;
15110;SDS011;7656;51.954;7.998;2023-04-01T11:37:05;1.80;;;1.70;;
15110;SDS011;7656;51.954;7.998;2023-04-01T11:57:01;1.93;;;1.83;;
15110;SDS011;7656;51.954;7.998;2023-04-01T12:11:38;3.20;;;2.90;;
15110;SDS011;7656;51.954;7.998;2023-04-01T12:16:24;3.43;;;3.13;;
15110;SDS011;7656;51.954;7.998;2023-04-01T12:30:42;5.50;;;4.63;;
15110;SDS011;7656;51.954;7.998;2023-04-01T12:35:26;4.47;;;4.07;;
15110;SDS011;7656;51.954;7.998;2023-04-01T12:59:08;4.63;;;4.23;;
15110;SDS011;7656;51.954;7.998;2023-04-01T13:08:48;4.73;;;4.33;;
15110;SDS011;7656;51.954;7.998;2023-04-01T13:13:31;4.73;;;3.67;;
15110;SDS011;7656;51.954;7.998;2023-04-01T13:27:59;4.17;;;3.77;;
15110;SDS011;7656;51.954;7.998;2023-04-01T13:32:43;4.33;;;3.93;;
15110;SDS011;7656;51.954;7.998;2023-04-01T13:46:34;5.00;;;4.50;;
15110;SDS011;7656;51.954;7.998;2023-04-01T13:51:21;4.07;;;3.67;;
15110;SDS011;7656;51.954;7.998;2023-04-01T14:01:25;2.50;;;2.30;;
15110;SDS011;7656;51.954;7.998;2023-04-01T14:15:32;3.80;;;3.47;;
15110;SDS011;7656;51.954;7.998;2023-04-01T14:20:13;3.37;;;3.07;;
15110;SDS011;7656;51.954;7.998;2023-04-01T14:24:52;4.87;;;4.37;;
15110;SDS011;7656;51.954;7.998;2023-04-01T14:29:42;3.50;;;3.20;;
15110;SDS011;7656;51.954;7.998;2023-04-01T14:48:53;3.80;;;3.50;;
15110;SDS011;7656;51.954;7.998;2023-04-01T14:58:00;3.47;;;3.17;;
15110;SDS011;7656;51.954;7.998;2023-04-01T15:02:45;2.73;;;2.53;;
15110;SDS011;7656;51.954;7.998;2023-04-01T15:07:28;2.30;;;2.20;;
15110;SDS011;7656;51.954;7.998;2023-04-01T15:16:44;2.20;;;2.10;;
15110;SDS011;7656;51.954;7.998;2023-04-01T15:21:41;2.73;;;2.53;;
15110;SDS011;7656;51.954;7.998;2023-04-01T15:31:09;2.10;;;2.00;;
15110;SDS011;7656;51.954;7.998;2023-04-01T15:49:38;1.60;;;1.50;;
15110;SDS011;7656;51.954;7.998;2023-04-01T15:54:15;1.80;;;1.70;;
15110;SDS011;7656;51.954;7.998;2023-04-01T16:04:12;1.60;;;1.50;;
15110;SDS011;7656;51.954;7.998;2023-04-01T16:13:58;3.07;;;2.77;;
15110;SDS011;7656;51.954;7.998;2023-04-01T16:23:56;3.40;;;2.30;;
15110;SDS011;7656;51.954;7.998;2023-04-01T16:33:49;4.20;;;3.80;;
15110;SDS011;7656;51.954;7.998;2023-04-01T16:38:55;7.63;;;5.93;;
15110;SDS011;7656;51.954;7.998;2023-04-01T16:43:48;3.37;;;3.07;;
15110;SDS011;7656;51.954;7.998;2023-04-01T16:48:25;3.83;;;3.43;;
15110;SDS011;7656;51.954;7.998;2023-04-01T17:02:17;5.60;;;2.67;;
15110;SDS011;7656;51.954;7.998;2023-04-01T17:06:48;2.50;;;2.10;;
15110;SDS011;7656;51.954;7.998;2023-04-01T17:11:23;2.30;;;1.90;;
15110;SDS011;7656;51.954;7.998;2023-04-01T17:20:50;2.20;;;2.00;;
15110;SDS011;7656;51.954;7.998;2023-04-01T17:25:32;1.83;;;1.73;;
15110;SDS011;7656;51.954;7.998;2023-04-01T17:30:11;1.03;;;1.03;;
15110;SDS011;7656;51.954;7.998;2023-04-01T17:44:24;1.20;;;1.20;;
15110;SDS011;7656;51.954;7.998;2023-04-01T17:49:37;1.40;;;1.30;;
15110;SDS011;7656;51.954;7.998;2023-04-01T18:23:25;2.13;;;1.60;;
15110;SDS011;7656;51.954;7.998;2023-04-01T18:33:03;1.60;;;1.50;;
15110;SDS011;7656;51.954;7.998;2023-04-01T18:37:39;1.83;;;1.73;;
15110;SDS011;7656;51.954;7.998;2023-04-01T18:42:24;2.60;;;2.07;;
15110;SDS011;7656;51.954;7.998;2023-04-01T18:52:19;2.77;;;2.30;;
15110;SDS011;7656;51.954;7.998;2023-04-01T18:57:02;1.93;;;1.77;;
15110;SDS011;7656;51.954;7.998;2023-04-01T19:06:06;1.70;;;1.60;;
15110;SDS011;7656;51.954;7.998;2023-04-01T19:20:32;1.50;;;1.40;;
15110;SDS011;7656;51.954;7.998;2023-04-01T19:25:12;1.97;;;1.40;;
15110;SDS011;7656;51.954;7.998;2023-04-01T19:30:08;1.93;;;1.83;;
15110;SDS011;7656;51.954;7.998;2023-04-01T19:34:59;1.50;;;1.40;;
15110;SDS011;7656;51.954;7.998;2023-04-01T19:53:55;1.43;;;1.33;;
15110;SDS011;7656;51.954;7.998;2023-04-01T19:58:30;2.17;;;1.80;;
15110;SDS011;7656;51.954;7.998;2023-04-01T20:03:46;1.73;;;1.63;;
15110;SDS011;7656;51.954;7.998;2023-04-01T20:13:12;2.13;;;1.80;;
15110;SDS011;7656;51.954;7.998;2023-04-01T20:17:44;1.60;;;1.50;;
15110;SDS011;7656;51.954;7.998;2023-04-01T20:22:16;1.53;;;1.43;;
15110;SDS011;7656;51.954;7.998;2023-04-01T20:31:41;2.23;;;1.80;;
15110;SDS011;7656;51.954;7.998;2023-04-01T20:41:43;1.60;;;1.50;;
15110;SDS011;7656;51.954;7.998;2023-04-01T20:55:29;1.20;;;1.20;;
15110;SDS011;7656;51.954;7.998;2023-04-01T21:05:08;1.80;;;1.70;;
15110;SDS011;7656;51.954;7.998;2023-04-01T21:19:56;1.70;;;1.60;;
15110;SDS011;7656;51.954;7.998;2023-04-01T21:24:48;1.93;;;1.83;;
15110;SDS011;7656;51.954;7.998;2023-04-01T21:34:25;1.90;;;1.80;;
15110;SDS011;7656;51.954;7.998;2023-04-01T21:44:00;2.00;;;1.80;;
15110;SDS011;7656;51.954;7.998;2023-04-01T21:48:37;1.50;;;1.40;;
15110;SDS011;7656;51.954;7.998;2023-04-01T21:58:29;1.70;;;1.60;;
15110;SDS011;7656;51.954;7.998;2023-04-01T22:03:33;1.37;;;1.30;;
15110;SDS011;7656;51.954;7.998;2023-04-01T22:08:55;1.70;;;1.60;;
15110;SDS011;7656;51.954;7.998;2023-04-01T22:13:23;2.40;;;1.63;;
15110;SDS011;7656;51.954;7.998;2023-04-01T22:22:45;1.80;;;1.70;;
15110;SDS011;7656;51.954;7.998;2023-04-01T22:27:38;2.43;;;2.00;;
15110;SDS011;7656;51.954;7.998;2023-04-01T22:32:23;2.30;;;2.10;;
15110;SDS011;7656;51.954;7.998;2023-04-01T22:41:44;1.90;;;1.80;;
15110;SDS011;7656;51.954;7.998;2023-04-01T22:56:07;1.73;;;1.63;;
15110;SDS011;7656;51.954;7.998;2023-04-01T23:06:06;2.80;;;2.10;;
15110;SDS011;7656;51.954;7.998;2023-04-01T23:10:39;2.37;;;1.50;;
15110;SDS011;7656;51.954;7.998;2023-04-01T23:15:05;1.70;;;1.60;;
15110;SDS011;7656;51.954;7.998;2023-04-01T23:19:36;1.77;;;1.63;;
15110;SDS011;7656;51.954;7.998;2023-04-01T23:29:13;2.37;;;2.00;;
15110;SDS011;7656;51.954;7.998;2023-04-01T23:33:36;1.77;;;1.67;;
15110;SDS011;7656;51.954;7.998;2023-04-01T23:37:57;2.60;;;1.83;;
15110;SDS011;7656;51.954;7.998;2023-04-01T23:42:21;2.03;;;1.80;;
15110;SDS011;7656;51.954;7.998;2023-04-01T23:46:47;1.90;;;1.80;;
15110;SDS011;7656;51.954;7.998;2023-04-01T23:56:18;2.00;;;1.90;;
